createdAt,value
2023-02-19T00:01:29.987Z,101068.16
2023-02-19T00:04:03.567Z,101070.94
2023-02-19T00:06:37.009Z,101065.28
2023-02-19T00:09:09.626Z,101065.94
2023-02-19T00:11:42.236Z,101067.91
2023-02-19T00:14:18.002Z,101065.44
2023-02-19T00:16:52.816Z,101063.44
2023-02-19T00:19:25.220Z,101061.81
2023-02-19T00:21:57.320Z,101059.81
2023-02-19T00:24:29.073Z,101062.63
2023-02-19T00:27:02.595Z,101059.63
2023-02-19T00:29:34.439Z,101053.25
2023-02-19T00:32:08.930Z,101047.50
2023-02-19T00:34:40.510Z,101042.66
2023-02-19T00:37:11.679Z,101041.31
2023-02-19T00:39:43.831Z,101039.59
2023-02-19T00:42:15.482Z,101037.69
2023-02-19T00:44:49.432Z,101032.34
2023-02-19T00:48:09.219Z,101029.09
2023-02-19T00:50:44.420Z,101030.84
2023-02-19T00:53:16.729Z,101029.00
2023-02-19T00:55:49.158Z,101029.91
2023-02-19T00:58:21.704Z,101026.38
2023-02-19T01:00:54.537Z,101025.66
2023-02-19T01:03:36.943Z,101029.88
2023-02-19T01:06:14.378Z,101027.06
2023-02-19T01:08:47.279Z,101017.59
2023-02-19T01:11:20.840Z,101014.44
2023-02-19T01:13:53.093Z,101015.59
2023-02-19T01:16:27.943Z,101003.88
2023-02-19T01:19:01.434Z,101006.59
2023-02-19T01:21:36.920Z,101007.00
2023-02-19T01:24:09.374Z,100998.75
2023-02-19T01:26:42.196Z,100978.38
2023-02-19T01:29:14.394Z,100973.81
2023-02-19T01:31:47.568Z,100968.97
2023-02-19T01:34:19.703Z,100954.56
2023-02-19T01:36:55.010Z,100967.03
2023-02-19T01:39:27.314Z,100979.00
2023-02-19T01:42:00.036Z,100981.28
2023-02-19T01:45:19.006Z,100982.13
2023-02-19T01:47:57.155Z,100970.91
2023-02-19T01:50:33.192Z,100967.78
2023-02-19T01:53:12.449Z,100954.09
2023-02-19T01:55:45.956Z,100959.19
2023-02-19T01:58:19.838Z,100958.56
2023-02-19T02:00:52.509Z,100954.34
2023-02-19T02:03:25.615Z,100953.03
2023-02-19T02:06:04.174Z,100940.81
2023-02-19T02:08:52.555Z,100938.72
2023-02-19T02:11:25.239Z,100934.44
2023-02-19T02:13:58.466Z,100931.78
2023-02-19T02:16:38.058Z,100942.50
2023-02-19T02:19:28.107Z,100948.44
2023-02-19T02:22:08.696Z,100948.91
2023-02-19T02:25:13.800Z,100943.72
2023-02-19T02:27:58.520Z,100944.31
2023-02-19T02:30:41.140Z,100952.66
2023-02-19T02:33:30.878Z,100951.22
2023-02-19T02:36:08.499Z,100943.97
2023-02-19T02:38:44.463Z,100944.19
2023-02-19T02:41:18.846Z,100939.72
2023-02-19T02:43:51.165Z,100938.28
2023-02-19T02:46:31.758Z,100937.31
2023-02-19T02:49:08.785Z,100932.22
2023-02-19T02:51:45.358Z,100939.69
2023-02-19T02:54:32.516Z,100944.22
2023-02-19T02:57:05.897Z,100944.31
2023-02-19T02:59:40.998Z,100944.44
2023-02-19T03:02:19.354Z,100953.41
2023-02-19T03:05:10.498Z,100946.59
2023-02-19T03:07:49.678Z,100945.06
2023-02-19T03:10:27.537Z,100957.75
2023-02-19T03:13:15.657Z,100951.94
2023-02-19T03:16:04.465Z,100951.34
2023-02-19T03:18:56.486Z,100956.06
2023-02-19T03:21:32.004Z,100956.06
2023-02-19T03:24:18.781Z,100964.75
2023-02-19T03:26:54.202Z,100969.84
2023-02-19T03:29:30.374Z,100965.16
2023-02-19T03:32:06.599Z,100972.75
2023-02-19T03:34:47.262Z,100969.81
2023-02-19T03:37:27.332Z,100971.00
2023-02-19T03:40:00.815Z,100975.25
2023-02-19T03:42:44.642Z,100968.84
2023-02-19T03:45:36.922Z,100982.63
2023-02-19T03:48:25.778Z,100972.22
2023-02-19T03:51:19.059Z,100982.25
2023-02-19T03:54:06.061Z,100980.75
2023-02-19T03:56:47.085Z,100988.91
2023-02-19T03:59:24.481Z,100986.13
2023-02-19T04:02:02.359Z,100981.59
2023-02-19T04:04:39.830Z,100988.72
2023-02-19T04:07:30.117Z,101001.22
2023-02-19T04:10:02.719Z,100996.41
2023-02-19T04:12:37.204Z,100992.88
2023-02-19T04:15:13.498Z,101009.66
2023-02-19T04:17:51.381Z,101008.19
2023-02-19T04:20:26.419Z,101004.97
2023-02-19T04:23:02.022Z,101002.19
2023-02-19T04:25:36.023Z,101008.97
2023-02-19T04:28:08.602Z,101009.69
2023-02-19T04:30:41.079Z,101023.06
2023-02-19T04:33:13.676Z,101018.50
2023-02-19T04:35:45.985Z,101023.38
2023-02-19T04:38:21.264Z,101033.09
2023-02-19T04:40:53.503Z,101026.00
2023-02-19T04:43:26.034Z,101028.91
2023-02-19T04:45:58.236Z,101033.16
2023-02-19T04:48:30.976Z,101020.81
2023-02-19T04:51:03.053Z,101023.09
2023-02-19T04:53:38.737Z,101027.06
2023-02-19T04:56:11.737Z,101034.53
2023-02-19T04:58:45.074Z,101038.38
2023-02-19T05:01:17.758Z,101040.63
2023-02-19T05:03:50.335Z,101042.50
2023-02-19T05:06:22.935Z,101038.91
2023-02-19T05:08:58.235Z,101040.06
2023-02-19T05:11:30.615Z,101042.41
2023-02-19T05:14:02.976Z,101043.78
2023-02-19T05:16:35.375Z,101045.06
2023-02-19T05:19:10.452Z,101037.44
2023-02-19T05:21:43.473Z,101045.09
2023-02-19T05:24:22.193Z,101034.44
2023-02-19T05:26:54.213Z,101034.25
2023-02-19T05:29:26.953Z,101035.53
2023-02-19T05:31:59.286Z,101044.53
2023-02-19T05:34:31.924Z,101039.78
2023-02-19T05:37:04.173Z,101040.09
2023-02-19T05:39:39.552Z,101039.78
2023-02-19T05:42:11.809Z,101048.69
2023-02-19T05:44:44.283Z,101045.91
2023-02-19T05:47:16.667Z,101053.88
2023-02-19T05:49:49.178Z,101052.72
2023-02-19T05:52:21.441Z,101052.41
2023-02-19T05:54:56.933Z,101061.75
2023-02-19T06:00:31.635Z,101055.91
2023-02-19T06:03:04.138Z,101054.22
2023-02-19T06:05:36.632Z,101058.56
2023-02-19T06:08:09.014Z,101052.50
2023-02-19T06:10:44.913Z,101057.69
2023-02-19T06:13:17.885Z,101060.47
2023-02-19T06:15:50.655Z,101066.09
2023-02-19T06:18:23.239Z,101060.38
2023-02-19T06:20:55.812Z,101050.59
2023-02-19T06:23:30.781Z,101044.41
2023-02-19T06:26:15.746Z,101052.72
2023-02-19T06:28:49.557Z,101059.09
2023-02-19T06:31:26.265Z,101054.72
2023-02-19T06:33:58.624Z,101081.25
2023-02-19T06:36:31.467Z,101087.63
2023-02-19T06:39:04.800Z,101088.25
2023-02-19T06:41:40.266Z,101104.28
2023-02-19T06:44:12.570Z,101114.31
2023-02-19T06:46:45.195Z,101115.69
2023-02-19T06:49:17.560Z,101125.16
2023-02-19T06:51:50.212Z,101128.84
2023-02-19T06:54:22.189Z,101136.19
2023-02-19T06:56:59.419Z,101129.69
2023-02-19T06:59:31.696Z,101133.44
2023-02-19T07:02:03.890Z,101147.03
2023-02-19T07:04:36.477Z,101149.38
2023-02-19T07:07:08.787Z,101144.69
2023-02-19T07:09:40.742Z,101151.41
2023-02-19T07:12:20.158Z,101145.16
2023-02-19T07:14:51.552Z,101155.13
2023-02-19T07:17:23.701Z,101159.75
2023-02-19T07:20:24.200Z,101166.16
2023-02-19T07:22:56.734Z,101166.97
2023-02-19T07:25:28.372Z,101163.09
2023-02-19T07:28:03.101Z,101167.59
2023-02-19T07:30:34.870Z,101167.63
2023-02-19T07:33:10.095Z,101179.59
2023-02-19T07:35:48.422Z,101184.44
2023-02-19T07:38:23.116Z,101183.44
2023-02-19T07:40:55.377Z,101200.19
2023-02-19T07:43:32.714Z,101201.41
2023-02-19T07:46:06.667Z,101196.31
2023-02-19T07:48:48.624Z,101203.41
2023-02-19T07:51:23.064Z,101207.25
2023-02-19T07:53:55.588Z,101212.38
2023-02-19T07:56:29.275Z,101213.72
2023-02-19T07:59:04.139Z,101225.97
2023-02-19T08:01:48.246Z,101234.38
2023-02-19T08:04:20.305Z,101242.69
2023-02-19T08:06:52.101Z,101243.97
2023-02-19T08:09:24.466Z,101254.03
2023-02-19T08:12:30.984Z,101257.00
2023-02-19T08:15:05.728Z,101258.28
2023-02-19T08:17:37.573Z,101262.78
2023-02-19T08:20:10.357Z,101274.09
2023-02-19T08:22:42.463Z,101280.09
2023-02-19T08:25:14.426Z,101281.63
2023-02-19T08:27:46.425Z,101293.78
2023-02-19T08:30:21.455Z,101305.41
2023-02-19T08:32:53.359Z,101305.78
2023-02-19T08:35:25.835Z,101303.06
2023-02-19T08:37:59.339Z,101315.41
2023-02-19T08:40:31.584Z,101323.81
2023-02-19T08:43:06.732Z,101321.97
2023-02-19T08:45:41.911Z,101324.75
2023-02-19T08:48:14.640Z,101324.69
2023-02-19T08:50:46.742Z,101331.03
2023-02-19T08:53:18.761Z,101339.66
2023-02-19T08:55:51.311Z,101345.31
2023-02-19T08:58:23.371Z,101351.38
2023-02-19T09:00:58.832Z,101357.91
2023-02-19T09:03:31.254Z,101347.72
2023-02-19T09:06:03.549Z,101358.97
2023-02-19T09:08:35.769Z,101358.00
2023-02-19T09:11:09.596Z,101367.19
2023-02-19T09:13:42.217Z,101365.22
2023-02-19T09:16:17.571Z,101368.00
2023-02-19T09:18:49.811Z,101365.38
2023-02-19T09:24:25.936Z,101377.00
2023-02-19T09:26:59.074Z,101376.03
2023-02-19T09:29:32.412Z,101378.25
2023-02-19T09:32:07.871Z,101386.13
2023-02-19T09:34:40.498Z,101383.09
2023-02-19T09:37:13.160Z,101391.09
2023-02-19T09:39:45.418Z,101401.72
2023-02-19T09:42:21.877Z,101398.56
2023-02-19T09:44:58.817Z,101403.50
2023-02-19T09:47:36.663Z,101399.84
2023-02-19T09:50:13.621Z,101406.97
2023-02-19T09:52:51.856Z,101410.38
2023-02-19T09:55:35.034Z,101419.00
2023-02-19T09:58:21.255Z,101417.53
2023-02-19T10:00:54.453Z,101428.50
2023-02-19T10:03:35.506Z,101426.41
2023-02-19T10:06:11.565Z,101432.41
2023-02-19T10:08:45.531Z,101432.78
2023-02-19T10:11:19.487Z,101438.44
2023-02-19T10:13:55.095Z,101447.94
2023-02-19T10:16:30.408Z,101439.84
2023-02-19T10:19:05.611Z,101456.19
2023-02-19T10:21:37.868Z,101448.47
2023-02-19T10:24:12.211Z,101475.34
2023-02-19T10:26:44.387Z,101469.25
2023-02-19T10:29:16.815Z,101473.75
2023-02-19T10:31:49.403Z,101472.94
2023-02-19T10:34:25.912Z,101483.25
2023-02-19T10:36:58.210Z,101480.66
2023-02-19T10:39:46.390Z,101492.00
2023-02-19T10:42:24.668Z,101497.16
2023-02-19T10:45:02.196Z,101505.34
2023-02-19T10:47:36.250Z,101502.69
2023-02-19T10:50:29.973Z,101495.53
2023-02-19T10:53:03.918Z,101511.28
2023-02-19T10:55:40.971Z,101507.44
2023-02-19T10:58:27.590Z,101511.66
2023-02-19T11:01:19.860Z,101520.75
2023-02-19T11:03:54.590Z,101514.06
2023-02-19T11:06:30.715Z,101525.28
2023-02-19T11:09:04.491Z,101529.16
2023-02-19T11:11:39.993Z,101533.66
2023-02-19T11:14:20.174Z,101539.97
2023-02-19T11:16:56.516Z,101543.22
2023-02-19T11:19:42.795Z,101552.22
2023-02-19T11:22:33.979Z,101561.47
2023-02-19T11:25:10.149Z,101558.31
2023-02-19T11:27:57.921Z,101560.97
2023-02-19T11:30:42.774Z,101553.47
2023-02-19T11:33:33.069Z,101564.13
2023-02-19T11:36:30.465Z,101558.69
2023-02-19T11:39:23.012Z,101570.38
2023-02-19T11:42:12.500Z,101577.91
2023-02-19T11:44:57.133Z,101578.47
2023-02-19T11:47:57.321Z,101563.34
2023-02-19T11:50:43.056Z,101565.22
2023-02-19T11:53:24.317Z,101570.06
2023-02-19T11:56:19.303Z,101563.66
2023-02-19T11:59:08.115Z,101561.94
2023-02-19T12:02:07.640Z,101572.78
2023-02-19T12:05:07.456Z,101571.03
2023-02-19T12:08:24.077Z,101585.91
2023-02-19T12:11:23.492Z,101571.41
2023-02-19T12:14:28.291Z,101588.72
2023-02-19T12:17:07.492Z,101596.25
2023-02-19T12:20:00.791Z,101598.66
2023-02-19T12:22:34.472Z,101584.78
2023-02-19T12:25:32.193Z,101585.06
2023-02-19T12:28:45.213Z,101598.31
2023-02-19T12:31:52.301Z,101602.19
2023-02-19T12:34:43.872Z,101596.59
2023-02-19T12:37:28.008Z,101609.84
2023-02-19T12:40:19.050Z,101598.06
2023-02-19T12:43:05.191Z,101614.22
2023-02-19T12:45:46.184Z,101608.84
2023-02-19T12:48:28.511Z,101608.75
2023-02-19T12:51:06.391Z,101601.78
2023-02-19T12:53:45.437Z,101609.00
2023-02-19T12:56:22.492Z,101612.63
2023-02-19T12:59:02.441Z,101611.69
2023-02-19T13:01:47.157Z,101618.47
2023-02-19T13:04:31.431Z,101613.06
2023-02-19T13:07:09.308Z,101625.06
2023-02-19T13:09:47.421Z,101625.03
2023-02-19T13:12:26.060Z,101618.34
2023-02-19T13:15:01.978Z,101629.06
2023-02-19T13:17:42.424Z,101627.03
2023-02-19T13:20:22.452Z,101640.75
2023-02-19T13:23:15.902Z,101640.22
2023-02-19T13:26:03.282Z,101634.25
2023-02-19T13:28:52.808Z,101636.00
2023-02-19T13:31:41.716Z,101629.53
2023-02-19T13:34:25.827Z,101641.56
2023-02-19T13:36:59.278Z,101646.66
2023-02-19T13:39:31.526Z,101647.22
2023-02-19T13:42:04.167Z,101649.38
2023-02-19T13:44:37.581Z,101637.16
2023-02-19T13:47:53.545Z,101640.47
2023-02-19T13:50:30.299Z,101651.25
2023-02-19T13:53:03.609Z,101646.69
2023-02-19T13:55:53.284Z,101652.00
2023-02-19T13:58:56.056Z,101653.47
2023-02-19T14:01:57.758Z,101656.28
2023-02-19T14:04:47.748Z,101665.25
2023-02-19T14:07:39.986Z,101671.88
2023-02-19T14:10:16.780Z,101669.66
2023-02-19T14:12:48.978Z,101678.41
2023-02-19T14:15:44.348Z,101689.31
2023-02-19T14:18:46.940Z,101684.16
2023-02-19T14:21:26.210Z,101683.72
2023-02-19T14:24:02.078Z,101687.88
2023-02-19T14:26:36.943Z,101683.13
2023-02-19T14:29:12.346Z,101686.69
2023-02-19T14:31:48.640Z,101679.44
2023-02-19T14:34:23.213Z,101676.09
2023-02-19T14:37:00.948Z,101680.34
2023-02-19T14:39:40.625Z,101680.25
2023-02-19T14:42:20.983Z,101680.25
2023-02-19T14:44:57.125Z,101686.16
2023-02-19T14:47:35.206Z,101687.16
2023-02-19T14:50:10.568Z,101692.69
2023-02-19T14:52:47.002Z,101694.81
2023-02-19T14:55:28.306Z,101701.25
2023-02-19T14:58:03.608Z,101701.22
2023-02-19T15:00:38.748Z,101718.53
2023-02-19T15:03:29.050Z,101707.50
2023-02-19T15:06:05.504Z,101717.28
2023-02-19T15:08:41.182Z,101717.72
2023-02-19T15:11:22.243Z,101721.31
2023-02-19T15:13:59.210Z,101733.47
2023-02-19T15:16:32.773Z,101722.53
2023-02-19T15:19:09.541Z,101720.31
2023-02-19T15:21:47.612Z,101728.47
2023-02-19T15:24:22.106Z,101728.09
2023-02-19T15:26:59.177Z,101731.69
2023-02-19T15:29:33.328Z,101737.59
2023-02-19T15:32:05.177Z,101728.66
2023-02-19T15:34:37.019Z,101731.75
2023-02-19T15:37:16.188Z,101721.47
2023-02-19T15:39:50.680Z,101729.38
2023-02-19T15:42:28.653Z,101732.25
2023-02-19T15:45:06.528Z,101740.56
2023-02-19T15:47:42.498Z,101742.38
2023-02-19T15:50:18.722Z,101736.22
2023-02-19T15:52:53.285Z,101745.38
2023-02-19T15:55:35.406Z,101748.94
2023-02-19T15:58:19.772Z,101750.28
2023-02-19T16:00:56.513Z,101747.66
2023-02-19T16:03:33.412Z,101763.56
2023-02-19T16:06:25.803Z,101765.50
2023-02-19T16:09:05.996Z,101779.63
2023-02-19T16:11:39.993Z,101773.25
2023-02-19T16:14:34.368Z,101780.59
2023-02-19T16:17:15.813Z,101781.13
2023-02-19T16:19:50.486Z,101781.84
2023-02-19T16:22:25.130Z,101788.25
2023-02-19T16:24:59.265Z,101796.19
2023-02-19T16:27:34.449Z,101797.16
2023-02-19T16:30:13.031Z,101810.78
2023-02-19T16:32:47.086Z,101805.56
2023-02-19T16:35:40.064Z,101801.31
2023-02-19T16:38:16.973Z,101808.88
2023-02-19T16:41:16.587Z,101817.34
2023-02-19T16:43:48.656Z,101819.44
2023-02-19T16:46:23.110Z,101811.34
2023-02-19T16:48:55.227Z,101820.41
2023-02-19T16:51:29.486Z,101823.84
2023-02-19T16:54:01.471Z,101826.19
2023-02-19T16:56:33.286Z,101826.81
2023-02-19T16:59:05.249Z,101825.09
2023-02-19T17:01:40.466Z,101824.69
2023-02-19T17:04:16.242Z,101834.69
2023-02-19T17:06:48.108Z,101841.66
2023-02-19T17:09:20.206Z,101840.16
2023-02-19T17:11:52.049Z,101838.56
2023-02-19T17:14:24.009Z,101834.81
2023-02-19T17:17:00.447Z,101833.88
2023-02-19T17:19:33.808Z,101822.78
2023-02-19T17:22:05.751Z,101831.25
2023-02-19T17:24:37.808Z,101823.81
2023-02-19T17:27:13.550Z,101840.25
2023-02-19T17:29:45.559Z,101843.16
2023-02-19T17:32:19.881Z,101844.09
2023-02-19T17:34:51.998Z,101838.28
2023-02-19T17:37:23.568Z,101840.22
2023-02-19T17:39:55.803Z,101848.59
2023-02-19T17:42:27.598Z,101848.13
2023-02-19T17:44:59.675Z,101848.59
2023-02-19T17:47:50.616Z,101844.88
2023-02-19T17:50:25.336Z,101859.16
2023-02-19T17:52:57.062Z,101848.16
2023-02-19T17:55:30.265Z,101860.22
2023-02-19T17:58:01.856Z,101862.75
2023-02-19T18:00:35.549Z,101855.06
2023-02-19T18:03:10.749Z,101858.88
2023-02-19T18:05:43.091Z,101864.94
2023-02-19T18:08:15.148Z,101862.66
2023-02-19T18:10:47.448Z,101869.09
2023-02-19T18:13:19.346Z,101874.44
2023-02-19T18:15:51.647Z,101868.69
2023-02-19T18:18:44.583Z,101877.91
2023-02-19T18:21:17.266Z,101881.53
2023-02-19T18:23:50.219Z,101881.63
2023-02-19T18:26:24.934Z,101886.72
2023-02-19T18:28:56.920Z,101888.19
2023-02-19T18:31:29.332Z,101889.69
2023-02-19T18:34:04.000Z,101883.38
2023-02-19T18:36:36.361Z,101879.97
2023-02-19T18:39:08.385Z,101884.31
2023-02-19T18:41:40.658Z,101890.91
2023-02-19T18:44:12.605Z,101893.94
2023-02-19T18:46:45.802Z,101888.69
2023-02-19T18:49:21.260Z,101893.78
2023-02-19T18:51:53.707Z,101895.50
2023-02-19T18:54:26.918Z,101899.38
2023-02-19T18:57:00.982Z,101901.91
2023-02-19T18:59:32.968Z,101903.06
2023-02-19T19:02:07.960Z,101901.75
2023-02-19T19:04:43.372Z,101897.00
2023-02-19T19:07:15.970Z,101897.59
2023-02-19T19:09:47.841Z,101893.00
2023-02-19T19:12:20.687Z,101888.28
2023-02-19T19:14:53.613Z,101886.03
2023-02-19T19:17:26.045Z,101893.06
2023-02-19T19:20:00.793Z,101893.31
2023-02-19T19:22:33.194Z,101898.16
2023-02-19T19:25:05.490Z,101888.69
2023-02-19T19:27:38.283Z,101893.72
2023-02-19T19:30:17.770Z,101889.06
2023-02-19T19:32:52.395Z,101886.72
2023-02-19T19:35:28.924Z,101887.63
2023-02-19T19:38:01.281Z,101889.03
2023-02-19T19:40:33.603Z,101885.94
2023-02-19T19:43:06.518Z,101891.81
2023-02-19T19:45:38.587Z,101880.88
2023-02-19T19:48:10.862Z,101887.16
2023-02-19T19:50:45.542Z,101889.50
2023-02-19T19:53:18.480Z,101885.94
2023-02-19T19:55:50.398Z,101881.84
2023-02-19T19:58:25.087Z,101881.44
2023-02-19T20:01:06.282Z,101881.53
2023-02-19T20:03:38.749Z,101889.06
2023-02-19T20:06:13.331Z,101886.78
2023-02-19T20:08:45.720Z,101881.09
2023-02-19T20:11:17.510Z,101876.66
2023-02-19T20:13:49.630Z,101879.25
2023-02-19T20:16:27.139Z,101884.97
2023-02-19T20:18:59.276Z,101889.09
2023-02-19T20:21:33.951Z,101887.94
2023-02-19T20:24:06.164Z,101901.66
2023-02-19T20:26:37.934Z,101900.28
2023-02-19T20:29:11.627Z,101898.94
2023-02-19T20:31:43.404Z,101910.75
2023-02-19T20:34:15.365Z,101902.63
2023-02-19T20:36:51.584Z,101906.31
2023-02-19T20:39:29.149Z,101906.03
2023-02-19T20:42:02.582Z,101903.56
2023-02-19T20:44:35.005Z,101907.41
2023-02-19T20:47:07.211Z,101904.72
2023-02-19T20:49:39.454Z,101915.00
2023-02-19T20:52:14.011Z,101912.59
2023-02-19T20:54:46.389Z,101918.47
2023-02-19T20:57:18.590Z,101907.94
2023-02-19T20:59:50.814Z,101913.88
2023-02-19T21:02:24.821Z,101899.34
2023-02-19T21:04:57.356Z,101909.09
2023-02-19T21:07:32.010Z,101908.69
2023-02-19T21:10:04.061Z,101905.59
2023-02-19T21:12:36.907Z,101908.09
2023-02-19T21:15:09.866Z,101908.16
2023-02-19T21:17:41.983Z,101907.59
2023-02-19T21:20:14.867Z,101907.47
2023-02-19T21:22:50.552Z,101896.09
2023-02-19T21:25:22.661Z,101888.09
2023-02-19T21:27:54.499Z,101881.28
2023-02-19T21:30:26.621Z,101882.03
2023-02-19T21:32:58.440Z,101877.38
2023-02-19T21:35:31.117Z,101872.81
2023-02-19T21:38:05.952Z,101869.75
2023-02-19T21:40:38.032Z,101871.22
2023-02-19T21:43:09.740Z,101875.47
2023-02-19T21:45:42.981Z,101862.75
2023-02-19T21:48:14.833Z,101860.94
2023-02-19T21:50:47.679Z,101858.00
2023-02-19T21:53:21.977Z,101856.00
2023-02-19T21:55:58.708Z,101849.72
2023-02-19T21:58:30.841Z,101855.22
2023-02-19T22:01:03.105Z,101850.00
2023-02-19T22:03:35.109Z,101842.03
2023-02-19T22:06:07.851Z,101843.66
2023-02-19T22:08:42.450Z,101842.66
2023-02-19T22:11:15.097Z,101836.03
2023-02-19T22:13:47.571Z,101824.59
2023-02-19T22:16:20.762Z,101817.44
2023-02-19T22:18:54.969Z,101817.81
2023-02-19T22:21:32.673Z,101813.50
2023-02-19T22:24:08.151Z,101807.16
2023-02-19T22:26:40.712Z,101806.28
2023-02-19T22:29:15.469Z,101811.50
2023-02-19T22:31:48.130Z,101803.56
2023-02-19T22:34:20.874Z,101809.72
2023-02-19T22:36:53.620Z,101816.53
2023-02-19T22:39:30.300Z,101819.63
2023-02-19T22:42:02.971Z,101816.09
2023-02-19T22:44:35.652Z,101819.41
2023-02-19T22:47:08.426Z,101824.72
2023-02-19T22:49:43.861Z,101832.41
2023-02-19T22:52:17.382Z,101834.34
2023-02-19T22:54:55.591Z,101841.25
2023-02-19T22:57:29.093Z,101845.59
2023-02-19T23:00:03.655Z,101842.78
2023-02-19T23:02:36.255Z,101838.13
2023-02-19T23:05:08.879Z,101836.03
2023-02-19T23:07:41.277Z,101827.59
2023-02-19T23:10:17.001Z,101838.13
2023-02-19T23:12:49.537Z,101840.78
2023-02-19T23:15:21.797Z,101838.69
2023-02-19T23:17:54.328Z,101840.59
2023-02-19T23:20:26.659Z,101835.34
2023-02-19T23:22:59.258Z,101827.03
2023-02-19T23:25:33.999Z,101835.56
2023-02-19T23:28:06.985Z,101830.94
2023-02-19T23:30:39.142Z,101834.88
2023-02-19T23:33:11.725Z,101825.38
2023-02-19T23:35:43.921Z,101825.22
2023-02-19T23:38:16.477Z,101821.91
2023-02-19T23:40:51.454Z,101821.50
2023-02-19T23:43:24.433Z,101805.16
2023-02-19T23:45:57.345Z,101810.66
2023-02-19T23:48:29.813Z,101793.88
2023-02-19T23:51:02.624Z,101811.03
2023-02-19T23:53:35.291Z,101802.78
2023-02-19T23:56:10.841Z,101807.81
2023-02-19T23:58:43.672Z,101798.72
